Humidity-temperature Sensor

Selected Measurement Type: Air Temperature

 
Air Temperature [°C]     6 entries per hour
Showing data from 3/11/2015 (00:00:00 Z) to 3/8/2015 (05:00:00 Z)
Previous Next [ Day | 3-Days | 7-Days ]
First Last
Prev [ Day | 3-Days | 7-Days ] Next
First Last

Start Time:     :
End Time:     :     
Time (in GMT) :00 :50 :40 :30 :20 :10
Previous Next [ Day | 3-Days | 7-Days ]
First Last
Prev [ Day | 3-Days | 7-Days ] Next
First Last


123 => good data
MM => data is determined as missing
-- => data not received/configured
Back to Top Back to Top
3/11/2015 00:00 to 23:10 27.11 26.97 27.05 27.18 27.06 27.17
3/10/2015 23:00 to 22:10 27.13 27.14 27.05 27.12 26.98 27.00
3/10/2015 22:00 to 21:10 26.97 27.06 27.01 27.02 27.05 27.10
3/10/2015 21:00 to 20:10 27.17 27.10 27.10 27.04 27.12 27.04
3/10/2015 20:00 to 19:10 27.06 27.09 27.03 27.11 27.05 27.05
3/10/2015 19:00 to 18:10 26.98 27.09 27.07 27.20 27.29 27.13
3/10/2015 18:00 to 17:10 27.20 27.20 27.20 27.13 27.18 27.18
3/10/2015 17:00 to 16:10 27.21 27.16 27.26 27.36 27.47 27.34
3/10/2015 16:00 to 15:10 27.31 27.26 26.97 27.24 27.02 27.07
3/10/2015 15:00 to 14:10 26.95 26.76 26.86 26.86 26.79 26.86
3/10/2015 14:00 to 13:10 26.78 26.83 26.81 26.74 26.73 26.79
3/10/2015 13:00 to 12:10 26.66 26.71 26.67 26.63 26.72 26.70
3/10/2015 12:00 to 11:10 26.73 26.71 26.76 26.71 26.70 26.74
3/10/2015 11:00 to 10:10 26.70 26.78 26.78 26.87 26.78 26.84
3/10/2015 10:00 to 9:10 26.95 26.92 26.91 26.88 26.84 26.91
3/10/2015 09:00 to 8:10 26.88 26.94 26.88 26.95 26.90 27.03
3/10/2015 08:00 to 7:10 27.11 27.06 27.07 27.03 27.12 27.27
3/10/2015 07:00 to 6:10 27.19 27.10 27.24 27.17 27.25 27.30
3/10/2015 06:00 to 5:10 27.34 27.39 27.38 27.33 27.31 27.42
3/10/2015 05:00 to 4:10 27.36 27.25 27.36 27.37 27.41 27.31
3/10/2015 04:00 to 3:10 27.36 27.28 27.40 27.38 27.38 27.46
3/10/2015 03:00 to 2:10 27.32 27.37 27.48 27.36 27.39 27.38
3/10/2015 02:00 to 1:10 27.66 27.65 27.68 27.68 27.74 27.73
3/10/2015 01:00 to 0:10 27.73 27.74 27.65 27.63 27.55 27.65
3/10/2015 00:00 to 23:10 27.50 27.53 27.53 27.57 27.54 27.60
3/9/2015 23:00 to 22:10 27.51 27.56 27.54 27.48 27.58 27.42
3/9/2015 22:00 to 21:10 27.47 27.57 27.55 27.56 27.54 27.57
3/9/2015 21:00 to 20:10 27.62 27.48 27.43 27.49 27.59 27.58
3/9/2015 20:00 to 19:10 27.60 27.48 27.56 27.41 27.44 27.49
3/9/2015 19:00 to 18:10 27.41 27.39 27.35 27.26 27.36 27.43
3/9/2015 18:00 to 17:10 27.46 27.56 27.55 27.51 27.41 27.31
3/9/2015 17:00 to 16:10 27.73 27.60 27.52 27.00 26.96 26.77
3/9/2015 16:00 to 15:10 26.54 25.92 27.33 27.33 27.26 27.13
3/9/2015 15:00 to 14:10 27.10 26.85 27.12 27.22 27.22 27.24
3/9/2015 14:00 to 13:10 27.21 27.15 27.16 27.10 27.06 27.10
3/9/2015 13:00 to 12:10 27.12 27.12 27.05 27.02 27.06 27.03
3/9/2015 12:00 to 11:10 26.97 27.02 26.99 27.10 26.99 27.03
3/9/2015 11:00 to 10:10 26.99 27.03 27.01 27.04 27.09 27.03
3/9/2015 10:00 to 9:10 27.03 27.15 26.99 27.03 27.10 27.24
3/9/2015 09:00 to 8:10 27.22 27.23 27.16 27.23 27.18 27.30
3/9/2015 08:00 to 7:10 27.26 27.35 27.22 27.27 27.33 27.26
3/9/2015 07:00 to 6:10 27.27 27.31 27.25 27.38 27.34 27.40
3/9/2015 06:00 to 5:10 27.24 27.36 27.34 27.21 27.25 27.25
3/9/2015 05:00 to 4:10 27.24 27.16 27.21 27.19 27.25 27.15
3/9/2015 04:00 to 3:10 27.23 27.23 27.23 27.19 27.22 27.24
3/9/2015 03:00 to 2:10 27.25 27.14 27.23 27.23 27.25 27.19
3/9/2015 02:00 to 1:10 27.21 27.25 27.23 27.31 27.21 27.30
3/9/2015 01:00 to 0:10 27.33 27.34 27.30 27.29 27.36 27.31
3/9/2015 00:00 to 23:10 27.29 27.37 27.39 27.42 27.40 27.39
3/8/2015 23:00 to 22:10 27.40 27.42 27.53 27.52 27.52 27.55
3/8/2015 22:00 to 21:10 27.51 27.47 27.42 27.50 27.45 27.37
3/8/2015 21:00 to 20:10 27.28 27.40 27.58 27.60 27.54 27.46
3/8/2015 20:00 to 19:10 27.49 27.34 27.30 27.41 27.35 27.35
3/8/2015 19:00 to 18:10 27.33 27.36 27.39 27.51 27.48 27.45
3/8/2015 18:00 to 17:10 27.63 27.44 27.55 27.58 27.57 27.50
3/8/2015 17:00 to 16:10 27.50 27.54 27.44 27.59 27.64 27.68
3/8/2015 16:00 to 15:10 27.71 27.74 27.73 27.47 27.45 27.20
3/8/2015 15:00 to 14:10 27.18 27.15 27.18 27.19 27.21 27.17
3/8/2015 14:00 to 13:10 27.12 27.12 26.94 26.92 26.95 26.99
3/8/2015 13:00 to 12:10 26.93 26.91 26.93 26.96 26.98 26.85
3/8/2015 12:00 to 11:10 26.77 26.82 26.84 26.74 26.73 26.63
3/8/2015 11:00 to 10:10 26.60 26.64 26.52 26.67 27.02 26.92
3/8/2015 10:00 to 9:10 26.94 26.87 26.83 26.88 26.86 26.95
3/8/2015 09:00 to 8:10 26.92 26.93 26.98 27.21 27.16 27.14
3/8/2015 08:00 to 7:10 27.04 27.10 27.17 27.16 27.16 27.20
3/8/2015 07:00 to 6:10 27.22 27.19 27.19 27.26 27.30 27.31
3/8/2015 06:00 to 5:10 27.30 27.32 27.25 27.33 27.23 27.31